sensor_id;sensor_type;location;lat;lon;timestamp;temperature;humidity
17421;DHT22;8828;48.800;9.540;2022-08-05T00:02:26;26.80;87.50
17421;DHT22;8828;48.800;9.540;2022-08-05T00:04:55;26.70;87.60
17421;DHT22;8828;48.800;9.540;2022-08-05T00:07:23;26.70;87.70
17421;DHT22;8828;48.800;9.540;2022-08-05T00:10:11;26.70;88.00
17421;DHT22;8828;48.800;9.540;2022-08-05T00:12:40;26.70;88.00
17421;DHT22;8828;48.800;9.540;2022-08-05T00:15:24;26.60;88.20
17421;DHT22;8828;48.800;9.540;2022-08-05T00:18:12;26.50;88.20
17421;DHT22;8828;48.800;9.540;2022-08-05T00:20:47;26.50;88.40
17421;DHT22;8828;48.800;9.540;2022-08-05T00:23:15;26.50;88.50
17421;DHT22;8828;48.800;9.540;2022-08-05T00:26:03;26.50;88.90
17421;DHT22;8828;48.800;9.540;2022-08-05T00:28:32;26.50;89.40
17421;DHT22;8828;48.800;9.540;2022-08-05T00:31:03;26.50;89.40
17421;DHT22;8828;48.800;9.540;2022-08-05T00:33:33;26.50;89.60
17421;DHT22;8828;48.800;9.540;2022-08-05T00:36:21;26.50;89.80
17421;DHT22;8828;48.800;9.540;2022-08-05T00:39:10;26.40;90.00
17421;DHT22;8828;48.800;9.540;2022-08-05T00:41:44;26.40;90.00
17421;DHT22;8828;48.800;9.540;2022-08-05T00:44:21;26.30;90.10
17421;DHT22;8828;48.800;9.540;2022-08-05T00:46:58;26.30;90.20
17421;DHT22;8828;48.800;9.540;2022-08-05T00:49:31;26.30;90.20
17421;DHT22;8828;48.800;9.540;2022-08-05T00:52:17;26.30;90.60
17421;DHT22;8828;48.800;9.540;2022-08-05T00:54:54;26.30;90.30
17421;DHT22;8828;48.800;9.540;2022-08-05T00:57:24;26.30;90.30
17421;DHT22;8828;48.800;9.540;2022-08-05T01:00:05;26.30;90.40
17421;DHT22;8828;48.800;9.540;2022-08-05T01:02:38;26.30;90.30
17421;DHT22;8828;48.800;9.540;2022-08-05T01:05:06;26.30;90.40
17421;DHT22;8828;48.800;9.540;2022-08-05T01:07:35;26.20;90.60
17421;DHT22;8828;48.800;9.540;2022-08-05T01:10:27;26.20;90.70
17421;DHT22;8828;48.800;9.540;2022-08-05T01:13:08;26.10;91.00
17421;DHT22;8828;48.800;9.540;2022-08-05T01:15:52;26.00;91.20
17421;DHT22;8828;48.800;9.540;2022-08-05T01:18:28;26.00;91.20
17421;DHT22;8828;48.800;9.540;2022-08-05T01:21:06;25.90;91.30
17421;DHT22;8828;48.800;9.540;2022-08-05T01:23:56;25.90;91.50
17421;DHT22;8828;48.800;9.540;2022-08-05T01:26:46;25.80;91.60
17421;DHT22;8828;48.800;9.540;2022-08-05T01:29:20;25.80;91.60
17421;DHT22;8828;48.800;9.540;2022-08-05T01:32:00;25.80;91.80
17421;DHT22;8828;48.800;9.540;2022-08-05T01:34:32;25.70;91.90
17421;DHT22;8828;48.800;9.540;2022-08-05T01:37:05;25.70;92.00
17421;DHT22;8828;48.800;9.540;2022-08-05T01:39:35;25.70;92.20
17421;DHT22;8828;48.800;9.540;2022-08-05T01:42:16;25.60;92.10
17421;DHT22;8828;48.800;9.540;2022-08-05T01:44:48;25.60;92.30
17421;DHT22;8828;48.800;9.540;2022-08-05T01:47:21;25.60;92.30
17421;DHT22;8828;48.800;9.540;2022-08-05T01:50:08;25.60;92.50
17421;DHT22;8828;48.800;9.540;2022-08-05T01:52:43;25.60;92.50
17421;DHT22;8828;48.800;9.540;2022-08-05T01:55:17;25.50;92.50
17421;DHT22;8828;48.800;9.540;2022-08-05T01:57:48;25.50;92.60
17421;DHT22;8828;48.800;9.540;2022-08-05T02:00:41;25.50;92.60
17421;DHT22;8828;48.800;9.540;2022-08-05T02:03:14;25.50;92.70
17421;DHT22;8828;48.800;9.540;2022-08-05T02:05:59;25.40;92.60
17421;DHT22;8828;48.800;9.540;2022-08-05T02:08:38;25.40;92.60
17421;DHT22;8828;48.800;9.540;2022-08-05T02:11:25;25.40;92.50
17421;DHT22;8828;48.800;9.540;2022-08-05T02:14:01;25.40;92.30
17421;DHT22;8828;48.800;9.540;2022-08-05T02:16:38;25.40;92.50
17421;DHT22;8828;48.800;9.540;2022-08-05T02:19:16;25.40;92.40
17421;DHT22;8828;48.800;9.540;2022-08-05T02:21:53;25.40;92.50
17421;DHT22;8828;48.800;9.540;2022-08-05T02:24:27;25.40;92.20
17421;DHT22;8828;48.800;9.540;2022-08-05T02:27:00;25.40;92.00
17421;DHT22;8828;48.800;9.540;2022-08-05T02:29:37;25.40;91.90
17421;DHT22;8828;48.800;9.540;2022-08-05T02:32:28;25.40;91.80
17421;DHT22;8828;48.800;9.540;2022-08-05T02:34:59;25.40;91.50
17421;DHT22;8828;48.800;9.540;2022-08-05T02:37:40;25.50;91.80
17421;DHT22;8828;48.800;9.540;2022-08-05T02:40:20;25.40;91.50
17421;DHT22;8828;48.800;9.540;2022-08-05T02:42:50;25.50;91.70
17421;DHT22;8828;48.800;9.540;2022-08-05T02:45:20;25.50;91.00
17421;DHT22;8828;48.800;9.540;2022-08-05T02:47:52;25.50;90.70
17421;DHT22;8828;48.800;9.540;2022-08-05T02:50:35;25.50;91.00
17421;DHT22;8828;48.800;9.540;2022-08-05T02:53:09;25.50;90.40
17421;DHT22;8828;48.800;9.540;2022-08-05T02:55:45;25.50;90.40
17421;DHT22;8828;48.800;9.540;2022-08-05T02:58:21;25.60;90.30
17421;DHT22;8828;48.800;9.540;2022-08-05T03:00:54;25.60;90.30
17421;DHT22;8828;48.800;9.540;2022-08-05T03:03:25;25.60;90.30
17421;DHT22;8828;48.800;9.540;2022-08-05T03:06:15;25.60;90.50
17421;DHT22;8828;48.800;9.540;2022-08-05T03:09:04;25.60;90.30
17421;DHT22;8828;48.800;9.540;2022-08-05T03:11:33;25.60;90.50
17421;DHT22;8828;48.800;9.540;2022-08-05T03:14:21;25.60;90.50
17421;DHT22;8828;48.800;9.540;2022-08-05T03:16:49;25.60;90.50
17421;DHT22;8828;48.800;9.540;2022-08-05T03:19:20;25.50;90.50
17421;DHT22;8828;48.800;9.540;2022-08-05T03:22:01;25.50;90.60
17421;DHT22;8828;48.800;9.540;2022-08-05T03:24:42;25.50;90.80
17421;DHT22;8828;48.800;9.540;2022-08-05T03:27:16;25.40;90.80
17421;DHT22;8828;48.800;9.540;2022-08-05T03:29:45;25.40;91.00
17421;DHT22;8828;48.800;9.540;2022-08-05T03:32:33;25.40;91.10
17421;DHT22;8828;48.800;9.540;2022-08-05T03:35:04;25.30;91.20
17421;DHT22;8828;48.800;9.540;2022-08-05T03:37:34;25.30;91.30
17421;DHT22;8828;48.800;9.540;2022-08-05T03:40:12;25.30;91.40
17421;DHT22;8828;48.800;9.540;2022-08-05T03:42:41;25.30;91.40
17421;DHT22;8828;48.800;9.540;2022-08-05T03:45:18;25.20;91.60
17421;DHT22;8828;48.800;9.540;2022-08-05T03:47:49;25.20;91.70
17421;DHT22;8828;48.800;9.540;2022-08-05T03:50:32;25.10;92.10
17421;DHT22;8828;48.800;9.540;2022-08-05T03:53:05;25.10;91.80
17421;DHT22;8828;48.800;9.540;2022-08-05T03:55:59;25.10;91.90
17421;DHT22;8828;48.800;9.540;2022-08-05T03:58:48;25.10;91.90
17421;DHT22;8828;48.800;9.540;2022-08-05T04:01:18;25.10;92.00
17421;DHT22;8828;48.800;9.540;2022-08-05T04:03:49;25.10;92.00
17421;DHT22;8828;48.800;9.540;2022-08-05T04:06:37;25.10;92.00
17421;DHT22;8828;48.800;9.540;2022-08-05T04:09:17;25.10;92.00
17421;DHT22;8828;48.800;9.540;2022-08-05T04:11:52;25.00;92.20
17421;DHT22;8828;48.800;9.540;2022-08-05T04:14:24;25.00;92.20
17421;DHT22;8828;48.800;9.540;2022-08-05T04:16:57;25.00;92.30
17421;DHT22;8828;48.800;9.540;2022-08-05T04:19:26;25.00;92.40
17421;DHT22;8828;48.800;9.540;2022-08-05T04:21:55;24.90;92.40
17421;DHT22;8828;48.800;9.540;2022-08-05T04:24:38;24.90;92.50
17421;DHT22;8828;48.800;9.540;2022-08-05T04:27:17;24.90;92.60
17421;DHT22;8828;48.800;9.540;2022-08-05T04:30:07;24.90;92.60
17421;DHT22;8828;48.800;9.540;2022-08-05T04:32:36;24.80;92.70
17421;DHT22;8828;48.800;9.540;2022-08-05T04:35:07;24.80;92.80
17421;DHT22;8828;48.800;9.540;2022-08-05T04:37:46;24.80;92.90
17421;DHT22;8828;48.800;9.540;2022-08-05T04:40:32;24.80;93.00
17421;DHT22;8828;48.800;9.540;2022-08-05T04:43:01;24.80;93.10
17421;DHT22;8828;48.800;9.540;2022-08-05T04:45:29;24.70;93.10
17421;DHT22;8828;48.800;9.540;2022-08-05T04:48:14;24.80;93.30
17421;DHT22;8828;48.800;9.540;2022-08-05T04:50:54;24.80;93.40
17421;DHT22;8828;48.800;9.540;2022-08-05T04:53:38;24.80;93.50
17421;DHT22;8828;48.800;9.540;2022-08-05T04:56:07;24.80;93.50
17421;DHT22;8828;48.800;9.540;2022-08-05T04:58:55;24.90;93.50
17421;DHT22;8828;48.800;9.540;2022-08-05T05:01:24;24.90;93.60
17421;DHT22;8828;48.800;9.540;2022-08-05T05:04:12;24.90;94.00
17421;DHT22;8828;48.800;9.540;2022-08-05T05:06:40;24.90;93.80
17421;DHT22;8828;48.800;9.540;2022-08-05T05:09:16;25.00;93.80
17421;DHT22;8828;48.800;9.540;2022-08-05T05:11:44;25.00;93.80
17421;DHT22;8828;48.800;9.540;2022-08-05T05:14:22;25.00;94.00
17421;DHT22;8828;48.800;9.540;2022-08-05T05:16:57;25.00;94.00
17421;DHT22;8828;48.800;9.540;2022-08-05T05:19:26;25.00;94.00
17421;DHT22;8828;48.800;9.540;2022-08-05T05:22:10;25.10;94.10
17421;DHT22;8828;48.800;9.540;2022-08-05T05:24:53;25.00;94.10
17421;DHT22;8828;48.800;9.540;2022-08-05T05:27:25;25.10;94.20
17421;DHT22;8828;48.800;9.540;2022-08-05T05:30:14;25.10;94.20
17421;DHT22;8828;48.800;9.540;2022-08-05T05:33:01;25.10;94.30
17421;DHT22;8828;48.800;9.540;2022-08-05T05:35:43;25.10;94.30
17421;DHT22;8828;48.800;9.540;2022-08-05T05:38:13;25.00;94.60
17421;DHT22;8828;48.800;9.540;2022-08-05T05:40:54;25.00;94.40
17421;DHT22;8828;48.800;9.540;2022-08-05T05:43:23;25.00;94.40
17421;DHT22;8828;48.800;9.540;2022-08-05T05:46:11;25.00;94.60
17421;DHT22;8828;48.800;9.540;2022-08-05T05:48:42;25.00;94.60
17421;DHT22;8828;48.800;9.540;2022-08-05T05:51:17;25.00;94.60
17421;DHT22;8828;48.800;9.540;2022-08-05T05:53:45;25.00;94.90
17421;DHT22;8828;48.800;9.540;2022-08-05T05:56:28;25.00;95.00
17421;DHT22;8828;48.800;9.540;2022-08-05T05:59:00;25.00;95.00
17421;DHT22;8828;48.800;9.540;2022-08-05T06:01:33;25.10;95.00
17421;DHT22;8828;48.800;9.540;2022-08-05T06:04:05;25.10;95.00
17421;DHT22;8828;48.800;9.540;2022-08-05T06:06:38;25.10;95.20
17421;DHT22;8828;48.800;9.540;2022-08-05T06:09:08;25.20;95.30
17421;DHT22;8828;48.800;9.540;2022-08-05T06:11:53;25.30;95.30
17421;DHT22;8828;48.800;9.540;2022-08-05T06:14:28;25.30;95.10
17421;DHT22;8828;48.800;9.540;2022-08-05T06:16:56;25.30;95.00
17421;DHT22;8828;48.800;9.540;2022-08-05T06:19:27;25.40;95.30
17421;DHT22;8828;48.800;9.540;2022-08-05T06:22:01;25.40;95.30
17421;DHT22;8828;48.800;9.540;2022-08-05T06:24:29;25.60;95.20
17421;DHT22;8828;48.800;9.540;2022-08-05T06:26:58;25.60;95.10
17421;DHT22;8828;48.800;9.540;2022-08-05T06:29:26;25.60;95.00
17421;DHT22;8828;48.800;9.540;2022-08-05T06:32:14;25.70;94.90
17421;DHT22;8828;48.800;9.540;2022-08-05T06:34:52;25.80;94.60
17421;DHT22;8828;48.800;9.540;2022-08-05T06:37:23;25.90;94.50
17421;DHT22;8828;48.800;9.540;2022-08-05T06:40:12;25.80;94.20
17421;DHT22;8828;48.800;9.540;2022-08-05T06:42:48;25.90;94.20
17421;DHT22;8828;48.800;9.540;2022-08-05T06:45:19;26.00;94.20
17421;DHT22;8828;48.800;9.540;2022-08-05T06:48:07;26.00;94.00
17421;DHT22;8828;48.800;9.540;2022-08-05T06:50:55;26.00;94.00
17421;DHT22;8828;48.800;9.540;2022-08-05T06:53:23;26.10;94.00
17421;DHT22;8828;48.800;9.540;2022-08-05T06:55:54;26.20;93.90
17421;DHT22;8828;48.800;9.540;2022-08-05T06:58:24;26.20;93.80
17421;DHT22;8828;48.800;9.540;2022-08-05T07:01:04;26.30;93.70
17421;DHT22;8828;48.800;9.540;2022-08-05T07:03:33;26.30;93.70
17421;DHT22;8828;48.800;9.540;2022-08-05T07:06:02;26.30;93.60
17421;DHT22;8828;48.800;9.540;2022-08-05T07:08:39;26.40;93.40
17421;DHT22;8828;48.800;9.540;2022-08-05T07:11:08;26.50;93.40
17421;DHT22;8828;48.800;9.540;2022-08-05T07:13:42;26.50;93.30
17421;DHT22;8828;48.800;9.540;2022-08-05T07:16:30;26.50;93.20
17421;DHT22;8828;48.800;9.540;2022-08-05T07:19:36;26.60;93.10
17421;DHT22;8828;48.800;9.540;2022-08-05T07:22:24;26.70;93.20
17421;DHT22;8828;48.800;9.540;2022-08-05T07:24:56;26.80;93.10
17421;DHT22;8828;48.800;9.540;2022-08-05T07:27:24;26.80;92.90
17421;DHT22;8828;48.800;9.540;2022-08-05T07:30:14;26.90;92.50
17421;DHT22;8828;48.800;9.540;2022-08-05T07:32:56;26.90;92.50
17421;DHT22;8828;48.800;9.540;2022-08-05T07:35:24;27.00;92.50
17421;DHT22;8828;48.800;9.540;2022-08-05T07:38:12;27.10;92.30
17421;DHT22;8828;48.800;9.540;2022-08-05T07:41:01;27.20;92.20
17421;DHT22;8828;48.800;9.540;2022-08-05T07:43:50;27.20;91.80
17421;DHT22;8828;48.800;9.540;2022-08-05T07:46:19;27.30;91.60
17421;DHT22;8828;48.800;9.540;2022-08-05T07:48:51;27.40;91.40
17421;DHT22;8828;48.800;9.540;2022-08-05T07:51:36;27.40;91.10
17421;DHT22;8828;48.800;9.540;2022-08-05T07:54:21;27.50;90.80
17421;DHT22;8828;48.800;9.540;2022-08-05T07:57:00;27.50;90.60
17421;DHT22;8828;48.800;9.540;2022-08-05T07:59:48;27.60;90.60
17421;DHT22;8828;48.800;9.540;2022-08-05T08:02:23;27.60;90.10
17421;DHT22;8828;48.800;9.540;2022-08-05T08:04:53;27.60;90.00
17421;DHT22;8828;48.800;9.540;2022-08-05T08:07:21;27.70;89.80
17421;DHT22;8828;48.800;9.540;2022-08-05T08:09:54;27.70;89.10
17421;DHT22;8828;48.800;9.540;2022-08-05T08:12:23;27.80;88.40
17421;DHT22;8828;48.800;9.540;2022-08-05T08:15:07;27.80;88.30
17421;DHT22;8828;48.800;9.540;2022-08-05T08:17:43;27.80;87.70
17421;DHT22;8828;48.800;9.540;2022-08-05T08:20:19;27.90;87.60
17421;DHT22;8828;48.800;9.540;2022-08-05T08:23:07;28.00;86.50
17421;DHT22;8828;48.800;9.540;2022-08-05T08:25:55;28.30;86.20
17421;DHT22;8828;48.800;9.540;2022-08-05T08:28:28;28.80;85.50
17421;DHT22;8828;48.800;9.540;2022-08-05T08:31:15;29.30;83.30
17421;DHT22;8828;48.800;9.540;2022-08-05T08:33:46;29.90;81.40
17421;DHT22;8828;48.800;9.540;2022-08-05T08:36:18;30.40;80.10
17421;DHT22;8828;48.800;9.540;2022-08-05T08:39:06;30.70;77.70
17421;DHT22;8828;48.800;9.540;2022-08-05T08:41:42;30.90;76.50
17421;DHT22;8828;48.800;9.540;2022-08-05T08:44:29;31.00;75.60
17421;DHT22;8828;48.800;9.540;2022-08-05T08:47:18;31.10;75.70
17421;DHT22;8828;48.800;9.540;2022-08-05T08:50:11;31.20;75.30
17421;DHT22;8828;48.800;9.540;2022-08-05T08:53:03;31.30;74.90
17421;DHT22;8828;48.800;9.540;2022-08-05T08:55:38;31.40;73.90
17421;DHT22;8828;48.800;9.540;2022-08-05T08:58:26;31.60;73.70
17421;DHT22;8828;48.800;9.540;2022-08-05T09:01:10;31.70;73.30
17421;DHT22;8828;48.800;9.540;2022-08-05T09:03:44;31.80;72.90
17421;DHT22;8828;48.800;9.540;2022-08-05T09:06:14;32.00;71.80
17421;DHT22;8828;48.800;9.540;2022-08-05T09:08:47;32.20;71.00
17421;DHT22;8828;48.800;9.540;2022-08-05T09:11:15;32.40;70.00
17421;DHT22;8828;48.800;9.540;2022-08-05T09:14:03;32.50;69.90
17421;DHT22;8828;48.800;9.540;2022-08-05T09:16:51;32.80;69.00
17421;DHT22;8828;48.800;9.540;2022-08-05T09:19:20;32.90;68.80
17421;DHT22;8828;48.800;9.540;2022-08-05T09:21:55;33.10;67.00
17421;DHT22;8828;48.800;9.540;2022-08-05T09:24:56;33.20;67.10
17421;DHT22;8828;48.800;9.540;2022-08-05T09:27:31;33.30;66.90
17421;DHT22;8828;48.800;9.540;2022-08-05T09:30:19;33.50;66.50
17421;DHT22;8828;48.800;9.540;2022-08-05T09:32:50;33.60;67.30
17421;DHT22;8828;48.800;9.540;2022-08-05T09:35:19;33.70;65.50
17421;DHT22;8828;48.800;9.540;2022-08-05T09:37:55;33.90;64.70
17421;DHT22;8828;48.800;9.540;2022-08-05T09:40:44;33.90;64.00
17421;DHT22;8828;48.800;9.540;2022-08-05T09:43:37;34.00;64.20
17421;DHT22;8828;48.800;9.540;2022-08-05T09:46:23;34.10;64.00
17421;DHT22;8828;48.800;9.540;2022-08-05T09:48:55;34.20;64.20
17421;DHT22;8828;48.800;9.540;2022-08-05T09:51:43;34.20;62.80
17421;DHT22;8828;48.800;9.540;2022-08-05T09:54:29;34.10;63.00
17421;DHT22;8828;48.800;9.540;2022-08-05T09:56:57;34.10;62.30
17421;DHT22;8828;48.800;9.540;2022-08-05T09:59:27;34.20;62.90
17421;DHT22;8828;48.800;9.540;2022-08-05T10:02:03;34.30;62.10
17421;DHT22;8828;48.800;9.540;2022-08-05T10:04:34;34.50;62.00
17421;DHT22;8828;48.800;9.540;2022-08-05T10:07:05;34.70;60.70
17421;DHT22;8828;48.800;9.540;2022-08-05T10:09:57;34.70;60.60
17421;DHT22;8828;48.800;9.540;2022-08-05T10:12:42;34.80;60.60
17421;DHT22;8828;48.800;9.540;2022-08-05T10:15:20;35.00;59.70
17421;DHT22;8828;48.800;9.540;2022-08-05T10:18:09;35.20;59.20
17421;DHT22;8828;48.800;9.540;2022-08-05T10:20:41;35.10;59.00
17421;DHT22;8828;48.800;9.540;2022-08-05T10:23:16;35.10;59.40
17421;DHT22;8828;48.800;9.540;2022-08-05T10:26:08;35.00;58.60
17421;DHT22;8828;48.800;9.540;2022-08-05T10:28:40;34.90;58.90
17421;DHT22;8828;48.800;9.540;2022-08-05T10:31:11;34.90;59.70
17421;DHT22;8828;48.800;9.540;2022-08-05T10:34:00;35.10;59.50
17421;DHT22;8828;48.800;9.540;2022-08-05T10:36:28;35.20;58.20
17421;DHT22;8828;48.800;9.540;2022-08-05T10:39:01;35.20;58.40
17421;DHT22;8828;48.800;9.540;2022-08-05T10:41:42;35.30;58.20
17421;DHT22;8828;48.800;9.540;2022-08-05T10:44:16;35.40;58.00
17421;DHT22;8828;48.800;9.540;2022-08-05T10:46:47;35.40;58.00
17421;DHT22;8828;48.800;9.540;2022-08-05T10:49:21;35.50;58.40
17421;DHT22;8828;48.800;9.540;2022-08-05T10:51:59;35.60;58.30
17421;DHT22;8828;48.800;9.540;2022-08-05T10:54:45;35.70;57.60
17421;DHT22;8828;48.800;9.540;2022-08-05T10:57:27;35.80;57.60
17421;DHT22;8828;48.800;9.540;2022-08-05T11:00:08;35.90;57.00
17421;DHT22;8828;48.800;9.540;2022-08-05T11:03:09;35.90;56.80
17421;DHT22;8828;48.800;9.540;2022-08-05T11:06:18;35.90;56.20
17421;DHT22;8828;48.800;9.540;2022-08-05T11:09:26;35.90;55.90
17421;DHT22;8828;48.800;9.540;2022-08-05T11:12:44;36.00;56.10
17421;DHT22;8828;48.800;9.540;2022-08-05T11:15:22;36.20;55.70
17421;DHT22;8828;48.800;9.540;2022-08-05T11:18:25;36.20;56.10
17421;DHT22;8828;48.800;9.540;2022-08-05T11:20:58;36.30;56.00
17421;DHT22;8828;48.800;9.540;2022-08-05T11:23:33;36.40;55.10
17421;DHT22;8828;48.800;9.540;2022-08-05T11:26:21;36.40;55.10
17421;DHT22;8828;48.800;9.540;2022-08-05T11:29:00;36.40;54.90
17421;DHT22;8828;48.800;9.540;2022-08-05T11:31:40;36.50;55.30
17421;DHT22;8828;48.800;9.540;2022-08-05T11:34:37;36.60;54.40
17421;DHT22;8828;48.800;9.540;2022-08-05T11:37:05;36.60;54.50
17421;DHT22;8828;48.800;9.540;2022-08-05T11:39:53;36.70;54.50
17421;DHT22;8828;48.800;9.540;2022-08-05T11:42:31;36.70;54.40
17421;DHT22;8828;48.800;9.540;2022-08-05T11:45:08;36.80;54.60
17421;DHT22;8828;48.800;9.540;2022-08-05T11:47:52;36.80;54.30
17421;DHT22;8828;48.800;9.540;2022-08-05T11:50:21;36.90;54.70
17421;DHT22;8828;48.800;9.540;2022-08-05T11:52:50;37.00;55.00
17421;DHT22;8828;48.800;9.540;2022-08-05T11:55:24;37.00;54.70
17421;DHT22;8828;48.800;9.540;2022-08-05T11:58:02;37.10;54.20
17421;DHT22;8828;48.800;9.540;2022-08-05T12:00:38;37.00;53.90
17421;DHT22;8828;48.800;9.540;2022-08-05T12:03:19;37.00;53.70
17421;DHT22;8828;48.800;9.540;2022-08-05T12:05:59;37.10;53.70
17421;DHT22;8828;48.800;9.540;2022-08-05T12:08:27;37.10;53.80
17421;DHT22;8828;48.800;9.540;2022-08-05T12:10:58;37.20;53.30
17421;DHT22;8828;48.800;9.540;2022-08-05T12:13:32;37.20;53.30
17421;DHT22;8828;48.800;9.540;2022-08-05T12:16:18;37.20;53.00
17421;DHT22;8828;48.800;9.540;2022-08-05T12:18:52;37.20;52.30
17421;DHT22;8828;48.800;9.540;2022-08-05T12:21:22;37.00;52.50
17421;DHT22;8828;48.800;9.540;2022-08-05T12:23:58;37.00;52.70
17421;DHT22;8828;48.800;9.540;2022-08-05T12:26:31;37.10;52.40
17421;DHT22;8828;48.800;9.540;2022-08-05T12:29:00;37.10;53.00
17421;DHT22;8828;48.800;9.540;2022-08-05T12:31:32;37.20;53.10
17421;DHT22;8828;48.800;9.540;2022-08-05T12:34:14;37.30;52.50
17421;DHT22;8828;48.800;9.540;2022-08-05T12:36:47;37.30;52.00
17421;DHT22;8828;48.800;9.540;2022-08-05T12:39:17;37.30;51.90
17421;DHT22;8828;48.800;9.540;2022-08-05T12:41:45;37.30;52.20
17421;DHT22;8828;48.800;9.540;2022-08-05T12:44:15;37.30;52.30
17421;DHT22;8828;48.800;9.540;2022-08-05T12:47:01;37.30;52.30
17421;DHT22;8828;48.800;9.540;2022-08-05T12:49:39;37.40;51.90
17421;DHT22;8828;48.800;9.540;2022-08-05T12:52:28;37.40;52.50
17421;DHT22;8828;48.800;9.540;2022-08-05T12:55:16;37.40;52.70
17421;DHT22;8828;48.800;9.540;2022-08-05T12:57:49;37.40;52.80
17421;DHT22;8828;48.800;9.540;2022-08-05T13:00:41;37.30;52.50
17421;DHT22;8828;48.800;9.540;2022-08-05T13:03:33;37.30;52.60
17421;DHT22;8828;48.800;9.540;2022-08-05T13:06:13;37.20;53.00
17421;DHT22;8828;48.800;9.540;2022-08-05T13:08:42;37.20;52.70
17421;DHT22;8828;48.800;9.540;2022-08-05T13:11:18;37.20;53.40
17421;DHT22;8828;48.800;9.540;2022-08-05T13:14:24;37.20;52.70
17421;DHT22;8828;48.800;9.540;2022-08-05T13:17:06;37.30;53.30
17421;DHT22;8828;48.800;9.540;2022-08-05T13:19:37;37.30;52.90
17421;DHT22;8828;48.800;9.540;2022-08-05T13:22:19;37.30;52.10
17421;DHT22;8828;48.800;9.540;2022-08-05T13:24:56;37.30;52.60
17421;DHT22;8828;48.800;9.540;2022-08-05T13:27:32;37.20;52.60
17421;DHT22;8828;48.800;9.540;2022-08-05T13:30:05;37.10;53.00
17421;DHT22;8828;48.800;9.540;2022-08-05T13:32:54;37.10;52.40
17421;DHT22;8828;48.800;9.540;2022-08-05T13:35:28;37.00;52.10
17421;DHT22;8828;48.800;9.540;2022-08-05T13:38:12;37.00;52.50
17421;DHT22;8828;48.800;9.540;2022-08-05T13:40:57;37.00;53.50
17421;DHT22;8828;48.800;9.540;2022-08-05T13:43:26;37.10;52.00
17421;DHT22;8828;48.800;9.540;2022-08-05T13:46:14;37.20;51.70
17421;DHT22;8828;48.800;9.540;2022-08-05T13:49:02;37.30;51.40
17421;DHT22;8828;48.800;9.540;2022-08-05T13:51:38;37.30;52.10
17421;DHT22;8828;48.800;9.540;2022-08-05T13:54:13;37.40;51.80
17421;DHT22;8828;48.800;9.540;2022-08-05T13:56:43;37.50;51.60
17421;DHT22;8828;48.800;9.540;2022-08-05T13:59:18;37.50;51.30
17421;DHT22;8828;48.800;9.540;2022-08-05T14:01:50;37.40;50.70
17421;DHT22;8828;48.800;9.540;2022-08-05T14:04:26;37.40;51.20
17421;DHT22;8828;48.800;9.540;2022-08-05T14:07:18;37.30;51.60
17421;DHT22;8828;48.800;9.540;2022-08-05T14:10:08;37.30;51.60
17421;DHT22;8828;48.800;9.540;2022-08-05T14:12:36;37.30;51.90
17421;DHT22;8828;48.800;9.540;2022-08-05T14:15:05;37.40;52.20
17421;DHT22;8828;48.800;9.540;2022-08-05T14:17:53;37.40;51.50
17421;DHT22;8828;48.800;9.540;2022-08-05T14:20:25;37.40;51.60
17421;DHT22;8828;48.800;9.540;2022-08-05T14:22:55;37.30;51.80
17421;DHT22;8828;48.800;9.540;2022-08-05T14:25:23;37.30;51.70
17421;DHT22;8828;48.800;9.540;2022-08-05T14:27:55;37.30;51.70
17421;DHT22;8828;48.800;9.540;2022-08-05T14:30:24;37.10;51.70
17421;DHT22;8828;48.800;9.540;2022-08-05T14:32:54;36.90;52.10
17421;DHT22;8828;48.800;9.540;2022-08-05T14:35:22;36.70;51.90
17421;DHT22;8828;48.800;9.540;2022-08-05T14:38:12;36.60;52.50
17421;DHT22;8828;48.800;9.540;2022-08-05T14:40:58;36.50;52.50
17421;DHT22;8828;48.800;9.540;2022-08-05T14:43:26;36.20;52.70
17421;DHT22;8828;48.800;9.540;2022-08-05T14:46:14;35.80;53.30
17421;DHT22;8828;48.800;9.540;2022-08-05T14:48:42;35.50;53.30
17421;DHT22;8828;48.800;9.540;2022-08-05T14:51:15;35.10;53.80
17421;DHT22;8828;48.800;9.540;2022-08-05T14:53:47;34.80;54.30
17421;DHT22;8828;48.800;9.540;2022-08-05T14:56:36;34.50;54.90
17421;DHT22;8828;48.800;9.540;2022-08-05T14:59:11;34.30;55.40
17421;DHT22;8828;48.800;9.540;2022-08-05T15:01:39;34.00;56.00
17421;DHT22;8828;48.800;9.540;2022-08-05T15:04:15;33.80;56.40
17421;DHT22;8828;48.800;9.540;2022-08-05T15:06:46;33.60;56.80
17421;DHT22;8828;48.800;9.540;2022-08-05T15:09:17;33.50;57.20
17421;DHT22;8828;48.800;9.540;2022-08-05T15:12:06;33.30;57.20
17421;DHT22;8828;48.800;9.540;2022-08-05T15:14:35;33.10;57.50
17421;DHT22;8828;48.800;9.540;2022-08-05T15:17:15;33.00;57.80
17421;DHT22;8828;48.800;9.540;2022-08-05T15:20:04;32.90;58.00
17421;DHT22;8828;48.800;9.540;2022-08-05T15:22:35;32.80;58.20
17421;DHT22;8828;48.800;9.540;2022-08-05T15:25:06;32.70;58.60
17421;DHT22;8828;48.800;9.540;2022-08-05T15:27:39;32.70;58.90
17421;DHT22;8828;48.800;9.540;2022-08-05T15:30:18;32.60;59.70
17421;DHT22;8828;48.800;9.540;2022-08-05T15:32:48;32.50;60.40
17421;DHT22;8828;48.800;9.540;2022-08-05T15:35:16;32.40;60.90
17421;DHT22;8828;48.800;9.540;2022-08-05T15:37:47;32.40;61.40
17421;DHT22;8828;48.800;9.540;2022-08-05T15:40:36;32.40;62.00
17421;DHT22;8828;48.800;9.540;2022-08-05T15:43:25;32.30;62.80
17421;DHT22;8828;48.800;9.540;2022-08-05T15:45:53;32.30;63.20
17421;DHT22;8828;48.800;9.540;2022-08-05T15:48:26;32.20;63.70
17421;DHT22;8828;48.800;9.540;2022-08-05T15:50:55;32.20;64.70
17421;DHT22;8828;48.800;9.540;2022-08-05T15:53:29;32.30;64.30
17421;DHT22;8828;48.800;9.540;2022-08-05T15:56:05;32.20;64.40
17421;DHT22;8828;48.800;9.540;2022-08-05T15:58:40;32.20;64.70
17421;DHT22;8828;48.800;9.540;2022-08-05T16:01:10;32.10;65.20
17421;DHT22;8828;48.800;9.540;2022-08-05T16:03:44;32.00;65.60
17421;DHT22;8828;48.800;9.540;2022-08-05T16:06:16;32.00;65.80
17421;DHT22;8828;48.800;9.540;2022-08-05T16:08:46;32.00;66.30
17421;DHT22;8828;48.800;9.540;2022-08-05T16:11:20;31.90;67.10
17421;DHT22;8828;48.800;9.540;2022-08-05T16:14:06;31.90;67.50
17421;DHT22;8828;48.800;9.540;2022-08-05T16:16:34;31.80;67.80
17421;DHT22;8828;48.800;9.540;2022-08-05T16:19:03;31.80;67.80
17421;DHT22;8828;48.800;9.540;2022-08-05T16:21:35;31.70;68.20
17421;DHT22;8828;48.800;9.540;2022-08-05T16:24:23;31.70;68.20
17421;DHT22;8828;48.800;9.540;2022-08-05T16:27:08;31.60;68.70
17421;DHT22;8828;48.800;9.540;2022-08-05T16:29:42;31.50;69.20
17421;DHT22;8828;48.800;9.540;2022-08-05T16:32:17;31.40;69.80
17421;DHT22;8828;48.800;9.540;2022-08-05T16:34:55;31.30;69.90
17421;DHT22;8828;48.800;9.540;2022-08-05T16:37:25;31.20;69.90
17421;DHT22;8828;48.800;9.540;2022-08-05T16:40:13;31.20;70.70
17421;DHT22;8828;48.800;9.540;2022-08-05T16:42:56;31.20;69.80
17421;DHT22;8828;48.800;9.540;2022-08-05T16:45:24;31.30;70.00
17421;DHT22;8828;48.800;9.540;2022-08-05T16:48:12;31.20;69.80
17421;DHT22;8828;48.800;9.540;2022-08-05T16:50:51;31.20;70.50
17421;DHT22;8828;48.800;9.540;2022-08-05T16:53:19;31.20;69.70